sensor_id;sensor_type;location;lat;lon;timestamp;temperature;humidity
702;DHT22;334;48.808;9.222;2022-07-18T00:00:37;23.00;1.00
702;DHT22;334;48.808;9.222;2022-07-18T00:01:38;23.00;1.00
702;DHT22;334;48.808;9.222;2022-07-18T00:02:40;23.00;1.00
702;DHT22;334;48.808;9.222;2022-07-18T00:03:42;23.00;1.00
702;DHT22;334;48.808;9.222;2022-07-18T00:04:44;23.00;1.00
702;DHT22;334;48.808;9.222;2022-07-18T00:05:46;23.00;1.00
702;DHT22;334;48.808;9.222;2022-07-18T00:06:48;23.00;1.00
702;DHT22;334;48.808;9.222;2022-07-18T00:07:50;22.90;1.00
702;DHT22;334;48.808;9.222;2022-07-18T00:08:52;22.90;1.00
702;DHT22;334;48.808;9.222;2022-07-18T00:09:54;22.90;1.00
702;DHT22;334;48.808;9.222;2022-07-18T00:10:56;22.90;1.00
702;DHT22;334;48.808;9.222;2022-07-18T00:11:59;22.90;1.00
702;DHT22;334;48.808;9.222;2022-07-18T00:13:01;22.90;1.00
702;DHT22;334;48.808;9.222;2022-07-18T00:14:03;22.90;1.00
702;DHT22;334;48.808;9.222;2022-07-18T00:15:08;22.90;1.00
702;DHT22;334;48.808;9.222;2022-07-18T00:16:11;22.90;1.00
702;DHT22;334;48.808;9.222;2022-07-18T00:17:13;22.90;1.00
702;DHT22;334;48.808;9.222;2022-07-18T00:18:15;22.90;1.00
702;DHT22;334;48.808;9.222;2022-07-18T00:19:17;22.90;1.00
702;DHT22;334;48.808;9.222;2022-07-18T00:20:19;22.90;1.00
702;DHT22;334;48.808;9.222;2022-07-18T00:21:21;22.90;1.00
702;DHT22;334;48.808;9.222;2022-07-18T00:22:23;22.90;1.00
702;DHT22;334;48.808;9.222;2022-07-18T00:23:24;22.90;1.00
702;DHT22;334;48.808;9.222;2022-07-18T00:24:26;22.90;1.00
702;DHT22;334;48.808;9.222;2022-07-18T00:25:28;22.90;1.00
702;DHT22;334;48.808;9.222;2022-07-18T00:26:30;22.90;1.00
702;DHT22;334;48.808;9.222;2022-07-18T00:27:32;22.90;1.00
702;DHT22;334;48.808;9.222;2022-07-18T00:28:34;22.80;1.00
702;DHT22;334;48.808;9.222;2022-07-18T00:29:38;23.00;1.00
702;DHT22;334;48.808;9.222;2022-07-18T00:30:41;22.80;1.00
702;DHT22;334;48.808;9.222;2022-07-18T00:31:43;22.80;1.00
702;DHT22;334;48.808;9.222;2022-07-18T00:32:46;22.80;1.00
702;DHT22;334;48.808;9.222;2022-07-18T00:33:48;22.70;1.00
702;DHT22;334;48.808;9.222;2022-07-18T00:34:49;22.70;1.00
702;DHT22;334;48.808;9.222;2022-07-18T00:35:51;22.70;1.00
702;DHT22;334;48.808;9.222;2022-07-18T00:36:54;22.70;1.00
702;DHT22;334;48.808;9.222;2022-07-18T00:37:56;22.70;1.00
702;DHT22;334;48.808;9.222;2022-07-18T00:38:58;22.60;1.00
702;DHT22;334;48.808;9.222;2022-07-18T00:40:00;22.60;1.00
702;DHT22;334;48.808;9.222;2022-07-18T00:41:02;22.60;1.00
702;DHT22;334;48.808;9.222;2022-07-18T00:42:05;22.60;1.00
702;DHT22;334;48.808;9.222;2022-07-18T00:43:07;22.60;1.00
702;DHT22;334;48.808;9.222;2022-07-18T00:44:25;22.70;1.00
702;DHT22;334;48.808;9.222;2022-07-18T00:45:29;22.60;1.00
702;DHT22;334;48.808;9.222;2022-07-18T00:46:31;22.60;1.00
702;DHT22;334;48.808;9.222;2022-07-18T00:47:35;22.60;1.00
702;DHT22;334;48.808;9.222;2022-07-18T00:48:41;22.50;1.00
702;DHT22;334;48.808;9.222;2022-07-18T00:49:43;22.60;1.00
702;DHT22;334;48.808;9.222;2022-07-18T00:50:46;22.60;1.00
702;DHT22;334;48.808;9.222;2022-07-18T00:51:48;22.50;1.00
702;DHT22;334;48.808;9.222;2022-07-18T00:52:51;22.50;1.00
702;DHT22;334;48.808;9.222;2022-07-18T00:53:53;22.50;1.00
702;DHT22;334;48.808;9.222;2022-07-18T00:54:55;22.50;1.00
702;DHT22;334;48.808;9.222;2022-07-18T00:55:57;22.50;1.00
702;DHT22;334;48.808;9.222;2022-07-18T00:57:02;22.50;1.00
702;DHT22;334;48.808;9.222;2022-07-18T00:58:05;22.50;1.00
702;DHT22;334;48.808;9.222;2022-07-18T00:59:07;22.50;1.00
702;DHT22;334;48.808;9.222;2022-07-18T01:00:11;22.50;1.00
702;DHT22;334;48.808;9.222;2022-07-18T01:01:34;22.50;1.00
702;DHT22;334;48.808;9.222;2022-07-18T01:02:45;22.40;1.00
702;DHT22;334;48.808;9.222;2022-07-18T01:03:47;22.40;1.00
702;DHT22;334;48.808;9.222;2022-07-18T01:04:49;22.40;1.00
702;DHT22;334;48.808;9.222;2022-07-18T01:05:51;22.40;1.00
702;DHT22;334;48.808;9.222;2022-07-18T01:06:52;22.30;1.00
702;DHT22;334;48.808;9.222;2022-07-18T01:07:55;22.30;1.00
702;DHT22;334;48.808;9.222;2022-07-18T01:08:57;22.30;1.00
702;DHT22;334;48.808;9.222;2022-07-18T01:10:02;22.30;1.00
702;DHT22;334;48.808;9.222;2022-07-18T01:11:05;22.30;1.00
702;DHT22;334;48.808;9.222;2022-07-18T01:12:07;22.20;1.00
702;DHT22;334;48.808;9.222;2022-07-18T01:13:10;22.20;1.00
702;DHT22;334;48.808;9.222;2022-07-18T01:14:12;22.20;1.00
702;DHT22;334;48.808;9.222;2022-07-18T01:15:15;22.20;1.00
702;DHT22;334;48.808;9.222;2022-07-18T01:16:17;22.30;1.00
702;DHT22;334;48.808;9.222;2022-07-18T01:17:19;22.20;1.00
702;DHT22;334;48.808;9.222;2022-07-18T01:18:21;22.20;1.00
702;DHT22;334;48.808;9.222;2022-07-18T01:19:23;22.20;1.00
702;DHT22;334;48.808;9.222;2022-07-18T01:20:29;22.20;1.00
702;DHT22;334;48.808;9.222;2022-07-18T01:21:32;22.10;1.00
702;DHT22;334;48.808;9.222;2022-07-18T01:38:07;21.80;1.00
702;DHT22;334;48.808;9.222;2022-07-18T01:39:08;21.70;1.00
702;DHT22;334;48.808;9.222;2022-07-18T01:40:11;21.60;1.00
702;DHT22;334;48.808;9.222;2022-07-18T01:41:13;21.60;1.00
702;DHT22;334;48.808;9.222;2022-07-18T01:42:15;21.60;1.00
702;DHT22;334;48.808;9.222;2022-07-18T01:43:17;21.60;1.00
702;DHT22;334;48.808;9.222;2022-07-18T01:47:47;21.60;1.00
702;DHT22;334;48.808;9.222;2022-07-18T01:48:49;21.60;1.00
702;DHT22;334;48.808;9.222;2022-07-18T01:49:51;21.60;1.00
702;DHT22;334;48.808;9.222;2022-07-18T01:50:54;21.60;1.00
702;DHT22;334;48.808;9.222;2022-07-18T01:51:57;21.60;1.00
702;DHT22;334;48.808;9.222;2022-07-18T01:52:59;21.60;1.00
702;DHT22;334;48.808;9.222;2022-07-18T01:54:01;21.60;1.00
702;DHT22;334;48.808;9.222;2022-07-18T01:55:06;21.60;1.00
702;DHT22;334;48.808;9.222;2022-07-18T01:56:11;21.60;1.00
702;DHT22;334;48.808;9.222;2022-07-18T01:57:13;21.60;1.00
702;DHT22;334;48.808;9.222;2022-07-18T01:58:15;21.60;1.00
702;DHT22;334;48.808;9.222;2022-07-18T01:59:17;21.60;1.00
702;DHT22;334;48.808;9.222;2022-07-18T02:00:19;21.50;1.00
702;DHT22;334;48.808;9.222;2022-07-18T02:01:21;21.50;1.00
702;DHT22;334;48.808;9.222;2022-07-18T02:02:22;21.50;1.00
702;DHT22;334;48.808;9.222;2022-07-18T02:03:24;21.50;1.00
702;DHT22;334;48.808;9.222;2022-07-18T02:04:26;21.50;1.00
702;DHT22;334;48.808;9.222;2022-07-18T02:05:47;21.50;1.00
702;DHT22;334;48.808;9.222;2022-07-18T02:06:48;21.40;1.00
702;DHT22;334;48.808;9.222;2022-07-18T02:07:50;21.50;1.00
702;DHT22;334;48.808;9.222;2022-07-18T02:08:52;21.40;1.00
702;DHT22;334;48.808;9.222;2022-07-18T02:09:54;21.40;1.00
702;DHT22;334;48.808;9.222;2022-07-18T02:10:56;21.40;1.00
702;DHT22;334;48.808;9.222;2022-07-18T02:11:58;21.40;1.00
702;DHT22;334;48.808;9.222;2022-07-18T02:13:00;21.40;1.00
702;DHT22;334;48.808;9.222;2022-07-18T02:14:03;21.40;1.00
702;DHT22;334;48.808;9.222;2022-07-18T02:15:07;21.40;1.00
702;DHT22;334;48.808;9.222;2022-07-18T02:16:09;21.40;1.00
702;DHT22;334;48.808;9.222;2022-07-18T02:17:11;21.40;1.00
702;DHT22;334;48.808;9.222;2022-07-18T02:18:13;21.40;1.00
702;DHT22;334;48.808;9.222;2022-07-18T02:19:14;21.40;1.00
702;DHT22;334;48.808;9.222;2022-07-18T02:20:16;21.40;1.00
702;DHT22;334;48.808;9.222;2022-07-18T02:21:18;21.30;1.00
702;DHT22;334;48.808;9.222;2022-07-18T02:22:19;21.30;1.00
702;DHT22;334;48.808;9.222;2022-07-18T02:23:21;21.30;1.00
702;DHT22;334;48.808;9.222;2022-07-18T02:24:23;21.30;1.00
702;DHT22;334;48.808;9.222;2022-07-18T02:25:26;21.30;1.00
702;DHT22;334;48.808;9.222;2022-07-18T02:26:28;21.30;1.00
702;DHT22;334;48.808;9.222;2022-07-18T02:27:30;21.30;1.00
702;DHT22;334;48.808;9.222;2022-07-18T02:28:33;21.30;1.00
702;DHT22;334;48.808;9.222;2022-07-18T02:29:35;21.30;1.00
702;DHT22;334;48.808;9.222;2022-07-18T02:30:36;21.30;1.00
702;DHT22;334;48.808;9.222;2022-07-18T02:31:38;21.30;1.00
702;DHT22;334;48.808;9.222;2022-07-18T02:32:40;21.20;1.00
702;DHT22;334;48.808;9.222;2022-07-18T02:33:42;21.20;1.00
702;DHT22;334;48.808;9.222;2022-07-18T02:34:43;21.20;1.00
702;DHT22;334;48.808;9.222;2022-07-18T02:35:48;21.20;1.00
702;DHT22;334;48.808;9.222;2022-07-18T02:36:49;21.20;1.00
702;DHT22;334;48.808;9.222;2022-07-18T02:37:52;21.20;1.00
702;DHT22;334;48.808;9.222;2022-07-18T02:38:55;21.20;1.00
702;DHT22;334;48.808;9.222;2022-07-18T02:39:57;21.20;1.00
702;DHT22;334;48.808;9.222;2022-07-18T02:40:59;21.20;1.00
702;DHT22;334;48.808;9.222;2022-07-18T02:42:01;21.20;1.00
702;DHT22;334;48.808;9.222;2022-07-18T02:43:03;21.10;1.00
702;DHT22;334;48.808;9.222;2022-07-18T02:44:05;21.10;1.00
702;DHT22;334;48.808;9.222;2022-07-18T02:45:07;21.10;1.00
702;DHT22;334;48.808;9.222;2022-07-18T02:46:09;21.10;1.00
702;DHT22;334;48.808;9.222;2022-07-18T02:47:11;21.10;1.00
702;DHT22;334;48.808;9.222;2022-07-18T02:48:13;21.10;1.00
702;DHT22;334;48.808;9.222;2022-07-18T02:49:15;21.10;1.00
702;DHT22;334;48.808;9.222;2022-07-18T02:50:29;21.10;1.00
702;DHT22;334;48.808;9.222;2022-07-18T02:51:33;21.10;1.00
702;DHT22;334;48.808;9.222;2022-07-18T02:52:34;21.00;1.00
702;DHT22;334;48.808;9.222;2022-07-18T02:53:36;21.00;1.00
702;DHT22;334;48.808;9.222;2022-07-18T02:54:39;21.00;1.00
702;DHT22;334;48.808;9.222;2022-07-18T02:55:41;21.00;1.00
702;DHT22;334;48.808;9.222;2022-07-18T02:56:44;21.00;1.00
702;DHT22;334;48.808;9.222;2022-07-18T02:57:46;21.00;1.00
702;DHT22;334;48.808;9.222;2022-07-18T02:58:48;21.00;1.00
702;DHT22;334;48.808;9.222;2022-07-18T02:59:50;20.90;1.00
702;DHT22;334;48.808;9.222;2022-07-18T03:00:52;20.90;1.00
702;DHT22;334;48.808;9.222;2022-07-18T03:01:54;20.90;1.00
702;DHT22;334;48.808;9.222;2022-07-18T03:02:56;20.90;1.00
702;DHT22;334;48.808;9.222;2022-07-18T03:03:58;20.90;1.00
702;DHT22;334;48.808;9.222;2022-07-18T03:05:02;20.90;1.00
702;DHT22;334;48.808;9.222;2022-07-18T03:06:04;20.90;1.00
702;DHT22;334;48.808;9.222;2022-07-18T03:07:06;20.90;1.00
702;DHT22;334;48.808;9.222;2022-07-18T03:08:07;20.90;1.00
702;DHT22;334;48.808;9.222;2022-07-18T03:09:09;20.90;1.00
702;DHT22;334;48.808;9.222;2022-07-18T03:10:12;20.90;1.00
702;DHT22;334;48.808;9.222;2022-07-18T03:11:13;20.90;1.00
702;DHT22;334;48.808;9.222;2022-07-18T03:12:15;20.90;1.00
702;DHT22;334;48.808;9.222;2022-07-18T03:13:17;20.90;1.00
702;DHT22;334;48.808;9.222;2022-07-18T03:14:19;20.90;1.00
702;DHT22;334;48.808;9.222;2022-07-18T03:15:21;20.90;1.00
702;DHT22;334;48.808;9.222;2022-07-18T03:16:23;20.90;1.00
702;DHT22;334;48.808;9.222;2022-07-18T03:17:25;21.00;1.00
702;DHT22;334;48.808;9.222;2022-07-18T03:18:27;21.00;1.00
702;DHT22;334;48.808;9.222;2022-07-18T03:19:28;20.90;1.00
702;DHT22;334;48.808;9.222;2022-07-18T03:20:30;20.90;1.00
702;DHT22;334;48.808;9.222;2022-07-18T03:21:32;20.90;1.00
702;DHT22;334;48.808;9.222;2022-07-18T03:22:35;20.90;1.00
702;DHT22;334;48.808;9.222;2022-07-18T03:23:36;20.90;1.00
702;DHT22;334;48.808;9.222;2022-07-18T03:24:38;20.90;1.00
702;DHT22;334;48.808;9.222;2022-07-18T03:25:40;20.90;1.00
702;DHT22;334;48.808;9.222;2022-07-18T03:26:43;20.90;1.00
702;DHT22;334;48.808;9.222;2022-07-18T03:27:46;20.90;1.00
702;DHT22;334;48.808;9.222;2022-07-18T03:28:47;20.90;1.00
702;DHT22;334;48.808;9.222;2022-07-18T03:29:49;20.90;1.00
702;DHT22;334;48.808;9.222;2022-07-18T03:30:51;21.00;1.00
702;DHT22;334;48.808;9.222;2022-07-18T03:31:53;21.00;1.00
702;DHT22;334;48.808;9.222;2022-07-18T03:32:55;20.80;1.00
702;DHT22;334;48.808;9.222;2022-07-18T03:33:57;20.90;1.00
702;DHT22;334;48.808;9.222;2022-07-18T03:34:59;20.90;1.00
702;DHT22;334;48.808;9.222;2022-07-18T03:36:01;20.90;1.00
702;DHT22;334;48.808;9.222;2022-07-18T03:37:02;20.80;1.00
702;DHT22;334;48.808;9.222;2022-07-18T03:38:04;20.80;1.00
702;DHT22;334;48.808;9.222;2022-07-18T03:39:07;20.80;1.00
702;DHT22;334;48.808;9.222;2022-07-18T03:40:09;20.80;1.00
702;DHT22;334;48.808;9.222;2022-07-18T03:41:11;20.80;1.00
702;DHT22;334;48.808;9.222;2022-07-18T03:42:13;20.80;1.00
702;DHT22;334;48.808;9.222;2022-07-18T03:43:15;20.80;1.00
702;DHT22;334;48.808;9.222;2022-07-18T03:44:17;20.80;1.00
702;DHT22;334;48.808;9.222;2022-07-18T03:45:19;20.80;1.00
702;DHT22;334;48.808;9.222;2022-07-18T03:46:20;20.80;1.00
702;DHT22;334;48.808;9.222;2022-07-18T03:47:22;20.80;1.00
702;DHT22;334;48.808;9.222;2022-07-18T03:48:24;20.80;1.00
702;DHT22;334;48.808;9.222;2022-07-18T03:49:26;20.80;1.00
702;DHT22;334;48.808;9.222;2022-07-18T03:50:27;20.80;1.00
702;DHT22;334;48.808;9.222;2022-07-18T03:51:29;20.70;1.00
702;DHT22;334;48.808;9.222;2022-07-18T03:52:31;20.70;1.00
702;DHT22;334;48.808;9.222;2022-07-18T03:53:33;20.70;1.00
702;DHT22;334;48.808;9.222;2022-07-18T03:54:34;20.80;1.00
702;DHT22;334;48.808;9.222;2022-07-18T03:55:36;20.80;1.00
702;DHT22;334;48.808;9.222;2022-07-18T03:56:38;20.70;1.00
702;DHT22;334;48.808;9.222;2022-07-18T03:57:40;20.70;1.00
702;DHT22;334;48.808;9.222;2022-07-18T03:58:44;20.70;1.00
702;DHT22;334;48.808;9.222;2022-07-18T03:59:46;20.70;1.00
702;DHT22;334;48.808;9.222;2022-07-18T04:00:48;20.70;1.00
702;DHT22;334;48.808;9.222;2022-07-18T04:01:50;20.70;1.00
702;DHT22;334;48.808;9.222;2022-07-18T04:02:51;20.70;1.00
702;DHT22;334;48.808;9.222;2022-07-18T04:03:53;20.70;1.00
702;DHT22;334;48.808;9.222;2022-07-18T04:04:55;20.60;1.00
702;DHT22;334;48.808;9.222;2022-07-18T04:05:57;20.60;1.00
702;DHT22;334;48.808;9.222;2022-07-18T04:06:58;20.60;1.00
702;DHT22;334;48.808;9.222;2022-07-18T04:08:01;20.60;1.00
702;DHT22;334;48.808;9.222;2022-07-18T04:09:03;20.60;1.00
702;DHT22;334;48.808;9.222;2022-07-18T04:10:06;20.60;1.00
702;DHT22;334;48.808;9.222;2022-07-18T04:11:08;20.60;1.00
702;DHT22;334;48.808;9.222;2022-07-18T04:12:10;20.60;1.00
702;DHT22;334;48.808;9.222;2022-07-18T04:13:12;20.60;1.00
702;DHT22;334;48.808;9.222;2022-07-18T04:14:13;20.60;1.00
702;DHT22;334;48.808;9.222;2022-07-18T04:15:15;20.60;1.00
702;DHT22;334;48.808;9.222;2022-07-18T04:16:17;20.40;1.00
702;DHT22;334;48.808;9.222;2022-07-18T04:17:19;20.60;1.00
702;DHT22;334;48.808;9.222;2022-07-18T04:18:21;20.60;1.00
702;DHT22;334;48.808;9.222;2022-07-18T04:19:23;20.60;1.00
702;DHT22;334;48.808;9.222;2022-07-18T04:20:26;20.60;1.00
702;DHT22;334;48.808;9.222;2022-07-18T04:21:27;20.60;1.00
702;DHT22;334;48.808;9.222;2022-07-18T04:22:29;20.60;1.00
702;DHT22;334;48.808;9.222;2022-07-18T04:23:31;20.60;1.00
702;DHT22;334;48.808;9.222;2022-07-18T04:24:32;20.60;1.00
702;DHT22;334;48.808;9.222;2022-07-18T04:25:36;20.60;1.00
702;DHT22;334;48.808;9.222;2022-07-18T04:26:38;20.60;1.00
702;DHT22;334;48.808;9.222;2022-07-18T04:27:40;20.60;1.00
702;DHT22;334;48.808;9.222;2022-07-18T04:28:42;20.60;1.00
702;DHT22;334;48.808;9.222;2022-07-18T04:29:44;20.60;1.00
702;DHT22;334;48.808;9.222;2022-07-18T04:30:45;20.60;1.00
702;DHT22;334;48.808;9.222;2022-07-18T04:31:47;20.60;1.00
702;DHT22;334;48.808;9.222;2022-07-18T04:32:49;20.60;1.00
702;DHT22;334;48.808;9.222;2022-07-18T04:33:54;20.60;1.00
702;DHT22;334;48.808;9.222;2022-07-18T04:34:56;20.60;1.00
702;DHT22;334;48.808;9.222;2022-07-18T04:35:58;20.60;1.00
702;DHT22;334;48.808;9.222;2022-07-18T04:37:00;20.50;1.00
702;DHT22;334;48.808;9.222;2022-07-18T04:38:03;20.50;1.00
702;DHT22;334;48.808;9.222;2022-07-18T04:39:05;20.50;1.00
702;DHT22;334;48.808;9.222;2022-07-18T04:40:08;20.50;1.00
702;DHT22;334;48.808;9.222;2022-07-18T04:41:10;20.50;1.00
702;DHT22;334;48.808;9.222;2022-07-18T04:42:12;20.50;1.00
702;DHT22;334;48.808;9.222;2022-07-18T04:43:14;20.50;1.00
702;DHT22;334;48.808;9.222;2022-07-18T04:44:16;20.50;1.00
702;DHT22;334;48.808;9.222;2022-07-18T04:45:17;20.50;1.00
702;DHT22;334;48.808;9.222;2022-07-18T04:46:23;20.50;1.00
702;DHT22;334;48.808;9.222;2022-07-18T04:47:26;20.50;1.00
702;DHT22;334;48.808;9.222;2022-07-18T04:48:30;20.50;1.00
702;DHT22;334;48.808;9.222;2022-07-18T04:49:32;20.40;1.00
702;DHT22;334;48.808;9.222;2022-07-18T04:50:34;20.40;1.00
702;DHT22;334;48.808;9.222;2022-07-18T04:51:36;20.40;1.00
702;DHT22;334;48.808;9.222;2022-07-18T04:52:41;20.40;1.00
702;DHT22;334;48.808;9.222;2022-07-18T04:53:43;20.40;1.00
702;DHT22;334;48.808;9.222;2022-07-18T04:54:45;20.40;1.00
702;DHT22;334;48.808;9.222;2022-07-18T04:55:46;20.40;1.00
702;DHT22;334;48.808;9.222;2022-07-18T04:56:48;20.30;1.00
702;DHT22;334;48.808;9.222;2022-07-18T04:57:51;20.30;1.00
702;DHT22;334;48.808;9.222;2022-07-18T04:58:53;20.30;1.00
702;DHT22;334;48.808;9.222;2022-07-18T04:59:55;20.30;1.00
702;DHT22;334;48.808;9.222;2022-07-18T05:00:57;20.30;1.00
702;DHT22;334;48.808;9.222;2022-07-18T05:01:58;20.30;1.00
702;DHT22;334;48.808;9.222;2022-07-18T05:03:00;20.40;1.00
702;DHT22;334;48.808;9.222;2022-07-18T05:04:02;20.40;1.00
702;DHT22;334;48.808;9.222;2022-07-18T05:05:05;20.40;1.00
702;DHT22;334;48.808;9.222;2022-07-18T05:06:06;20.40;1.00
702;DHT22;334;48.808;9.222;2022-07-18T05:07:09;20.40;1.00
702;DHT22;334;48.808;9.222;2022-07-18T05:08:11;20.40;1.00
702;DHT22;334;48.808;9.222;2022-07-18T05:09:13;20.40;1.00
702;DHT22;334;48.808;9.222;2022-07-18T05:10:17;20.40;1.00
702;DHT22;334;48.808;9.222;2022-07-18T05:11:19;20.40;1.00
702;DHT22;334;48.808;9.222;2022-07-18T05:12:21;20.40;1.00
702;DHT22;334;48.808;9.222;2022-07-18T05:13:25;20.40;1.00
702;DHT22;334;48.808;9.222;2022-07-18T05:14:28;20.40;1.00
702;DHT22;334;48.808;9.222;2022-07-18T05:15:30;20.40;1.00
702;DHT22;334;48.808;9.222;2022-07-18T05:16:33;20.40;1.00
702;DHT22;334;48.808;9.222;2022-07-18T05:17:36;20.40;1.00
702;DHT22;334;48.808;9.222;2022-07-18T05:18:38;20.40;1.00
702;DHT22;334;48.808;9.222;2022-07-18T05:19:41;20.50;1.00
702;DHT22;334;48.808;9.222;2022-07-18T05:20:43;20.40;1.00
702;DHT22;334;48.808;9.222;2022-07-18T05:21:45;20.50;1.00
702;DHT22;334;48.808;9.222;2022-07-18T05:22:47;20.50;1.00
702;DHT22;334;48.808;9.222;2022-07-18T05:23:50;20.50;1.00
702;DHT22;334;48.808;9.222;2022-07-18T05:24:53;20.60;1.00
702;DHT22;334;48.808;9.222;2022-07-18T05:25:56;20.50;1.00
702;DHT22;334;48.808;9.222;2022-07-18T05:26:57;20.50;1.00
702;DHT22;334;48.808;9.222;2022-07-18T05:27:59;20.50;1.00
702;DHT22;334;48.808;9.222;2022-07-18T05:29:02;20.50;1.00
702;DHT22;334;48.808;9.222;2022-07-18T05:30:05;20.50;1.00
702;DHT22;334;48.808;9.222;2022-07-18T05:31:07;20.50;1.00
702;DHT22;334;48.808;9.222;2022-07-18T05:32:09;20.50;1.00
702;DHT22;334;48.808;9.222;2022-07-18T05:33:16;20.60;1.00
702;DHT22;334;48.808;9.222;2022-07-18T05:34:17;20.60;1.00
702;DHT22;334;48.808;9.222;2022-07-18T05:35:20;20.70;1.00
702;DHT22;334;48.808;9.222;2022-07-18T05:36:21;20.80;1.00
702;DHT22;334;48.808;9.222;2022-07-18T05:37:23;20.80;1.00
702;DHT22;334;48.808;9.222;2022-07-18T05:38:26;20.80;1.00
702;DHT22;334;48.808;9.222;2022-07-18T05:39:28;20.90;1.00
702;DHT22;334;48.808;9.222;2022-07-18T05:40:30;20.90;1.00
702;DHT22;334;48.808;9.222;2022-07-18T05:41:31;21.00;1.00
702;DHT22;334;48.808;9.222;2022-07-18T05:42:34;21.00;1.00
702;DHT22;334;48.808;9.222;2022-07-18T05:43:56;21.10;1.00
702;DHT22;334;48.808;9.222;2022-07-18T05:44:58;21.20;1.00
702;DHT22;334;48.808;9.222;2022-07-18T05:46:00;21.30;1.00
702;DHT22;334;48.808;9.222;2022-07-18T05:47:02;21.40;1.00
702;DHT22;334;48.808;9.222;2022-07-18T05:48:04;21.40;1.00
702;DHT22;334;48.808;9.222;2022-07-18T05:49:06;21.40;1.00
702;DHT22;334;48.808;9.222;2022-07-18T05:50:10;21.60;1.00
702;DHT22;334;48.808;9.222;2022-07-18T05:51:11;21.50;1.00
702;DHT22;334;48.808;9.222;2022-07-18T05:52:16;21.50;1.00
702;DHT22;334;48.808;9.222;2022-07-18T05:53:18;21.60;1.00
702;DHT22;334;48.808;9.222;2022-07-18T05:54:20;21.60;1.00
702;DHT22;334;48.808;9.222;2022-07-18T05:55:22;21.80;1.00
702;DHT22;334;48.808;9.222;2022-07-18T05:56:24;21.70;1.00
702;DHT22;334;48.808;9.222;2022-07-18T05:57:27;21.70;1.00
702;DHT22;334;48.808;9.222;2022-07-18T05:58:29;21.80;1.00
702;DHT22;334;48.808;9.222;2022-07-18T05:59:30;21.80;1.00
702;DHT22;334;48.808;9.222;2022-07-18T06:00:32;21.90;1.00
702;DHT22;334;48.808;9.222;2022-07-18T06:01:34;21.80;1.00
702;DHT22;334;48.808;9.222;2022-07-18T06:02:38;21.90;1.00
702;DHT22;334;48.808;9.222;2022-07-18T06:03:39;22.00;1.00
702;DHT22;334;48.808;9.222;2022-07-18T06:04:41;22.10;1.00
702;DHT22;334;48.808;9.222;2022-07-18T06:06:03;22.10;1.00
702;DHT22;334;48.808;9.222;2022-07-18T06:07:05;22.10;1.00
702;DHT22;334;48.808;9.222;2022-07-18T06:08:07;22.30;1.00
702;DHT22;334;48.808;9.222;2022-07-18T06:09:09;22.40;1.00
702;DHT22;334;48.808;9.222;2022-07-18T06:10:11;22.50;1.00
702;DHT22;334;48.808;9.222;2022-07-18T06:11:13;22.70;1.00
702;DHT22;334;48.808;9.222;2022-07-18T06:12:15;22.80;1.00
702;DHT22;334;48.808;9.222;2022-07-18T06:13:19;22.90;1.00
702;DHT22;334;48.808;9.222;2022-07-18T06:14:21;23.10;1.00
702;DHT22;334;48.808;9.222;2022-07-18T06:15:23;23.20;1.00
702;DHT22;334;48.808;9.222;2022-07-18T06:16:25;23.40;1.00
702;DHT22;334;48.808;9.222;2022-07-18T06:17:27;23.40;1.00
702;DHT22;334;48.808;9.222;2022-07-18T06:18:30;23.50;1.00
702;DHT22;334;48.808;9.222;2022-07-18T06:19:32;23.50;1.00
702;DHT22;334;48.808;9.222;2022-07-18T06:20:34;23.50;1.00
702;DHT22;334;48.808;9.222;2022-07-18T06:25:11;23.90;1.00
702;DHT22;334;48.808;9.222;2022-07-18T06:26:12;24.00;1.00
702;DHT22;334;48.808;9.222;2022-07-18T06:27:14;24.10;1.00
702;DHT22;334;48.808;9.222;2022-07-18T06:28:16;24.10;1.00
702;DHT22;334;48.808;9.222;2022-07-18T06:29:17;24.10;1.00
702;DHT22;334;48.808;9.222;2022-07-18T06:30:19;24.10;1.00
702;DHT22;334;48.808;9.222;2022-07-18T06:31:21;24.10;1.00
702;DHT22;334;48.808;9.222;2022-07-18T06:32:23;24.10;1.00
702;DHT22;334;48.808;9.222;2022-07-18T06:33:24;24.10;1.00
702;DHT22;334;48.808;9.222;2022-07-18T06:34:27;24.20;1.00
702;DHT22;334;48.808;9.222;2022-07-18T06:35:29;24.20;1.00
702;DHT22;334;48.808;9.222;2022-07-18T06:36:31;24.30;1.00
702;DHT22;334;48.808;9.222;2022-07-18T06:37:33;24.30;1.00
702;DHT22;334;48.808;9.222;2022-07-18T06:38:35;24.30;1.00
702;DHT22;334;48.808;9.222;2022-07-18T06:39:36;24.30;1.00
702;DHT22;334;48.808;9.222;2022-07-18T06:40:38;24.30;1.00
702;DHT22;334;48.808;9.222;2022-07-18T06:41:40;24.20;1.00
702;DHT22;334;48.808;9.222;2022-07-18T06:42:42;24.20;1.00
702;DHT22;334;48.808;9.222;2022-07-18T06:43:44;24.20;1.00
702;DHT22;334;48.808;9.222;2022-07-18T06:44:46;24.20;1.00
702;DHT22;334;48.808;9.222;2022-07-18T06:45:48;24.10;1.00
702;DHT22;334;48.808;9.222;2022-07-18T06:46:51;24.10;1.00
702;DHT22;334;48.808;9.222;2022-07-18T06:47:53;24.20;1.00
702;DHT22;334;48.808;9.222;2022-07-18T06:48:55;24.20;1.00
702;DHT22;334;48.808;9.222;2022-07-18T06:49:57;24.20;1.00
702;DHT22;334;48.808;9.222;2022-07-18T06:51:03;24.10;1.00
702;DHT22;334;48.808;9.222;2022-07-18T06:52:06;24.10;1.00
702;DHT22;334;48.808;9.222;2022-07-18T06:53:11;24.10;1.00
702;DHT22;334;48.808;9.222;2022-07-18T06:54:13;24.10;1.00
702;DHT22;334;48.808;9.222;2022-07-18T06:55:14;24.10;1.00
702;DHT22;334;48.808;9.222;2022-07-18T06:56:17;24.10;1.00
702;DHT22;334;48.808;9.222;2022-07-18T06:57:21;24.10;1.00
702;DHT22;334;48.808;9.222;2022-07-18T06:58:23;24.20;1.00
702;DHT22;334;48.808;9.222;2022-07-18T06:59:25;24.10;1.00
702;DHT22;334;48.808;9.222;2022-07-18T07:00:27;24.20;1.00
702;DHT22;334;48.808;9.222;2022-07-18T07:04:59;24.10;1.00
702;DHT22;334;48.808;9.222;2022-07-18T07:06:01;24.20;1.00
702;DHT22;334;48.808;9.222;2022-07-18T07:07:03;24.10;1.00
702;DHT22;334;48.808;9.222;2022-07-18T07:08:04;24.10;1.00
702;DHT22;334;48.808;9.222;2022-07-18T07:09:07;24.30;1.00
702;DHT22;334;48.808;9.222;2022-07-18T07:10:08;24.20;1.00
702;DHT22;334;48.808;9.222;2022-07-18T07:11:10;24.10;1.00
702;DHT22;334;48.808;9.222;2022-07-18T07:12:12;24.20;1.00
702;DHT22;334;48.808;9.222;2022-07-18T07:13:14;24.20;1.00
702;DHT22;334;48.808;9.222;2022-07-18T07:14:19;24.20;1.00
702;DHT22;334;48.808;9.222;2022-07-18T07:15:23;24.30;1.00
702;DHT22;334;48.808;9.222;2022-07-18T07:16:26;24.30;1.00
702;DHT22;334;48.808;9.222;2022-07-18T07:17:27;24.30;1.00
702;DHT22;334;48.808;9.222;2022-07-18T07:18:32;24.30;1.00
702;DHT22;334;48.808;9.222;2022-07-18T07:19:36;24.30;1.00
702;DHT22;334;48.808;9.222;2022-07-18T07:20:39;24.40;1.00
702;DHT22;334;48.808;9.222;2022-07-18T07:21:41;24.50;1.00
702;DHT22;334;48.808;9.222;2022-07-18T07:22:50;24.50;1.00
702;DHT22;334;48.808;9.222;2022-07-18T07:23:53;24.60;1.00
702;DHT22;334;48.808;9.222;2022-07-18T07:24:55;24.60;1.00
702;DHT22;334;48.808;9.222;2022-07-18T07:25:56;24.70;1.00
702;DHT22;334;48.808;9.222;2022-07-18T07:26:58;24.70;1.00
702;DHT22;334;48.808;9.222;2022-07-18T07:28:02;24.80;1.00
702;DHT22;334;48.808;9.222;2022-07-18T07:29:04;24.80;1.00
702;DHT22;334;48.808;9.222;2022-07-18T07:30:06;24.80;1.00
702;DHT22;334;48.808;9.222;2022-07-18T07:31:09;24.80;1.00
702;DHT22;334;48.808;9.222;2022-07-18T07:32:10;24.80;1.00
702;DHT22;334;48.808;9.222;2022-07-18T07:33:13;24.90;1.00
702;DHT22;334;48.808;9.222;2022-07-18T07:34:15;24.90;1.00
702;DHT22;334;48.808;9.222;2022-07-18T07:35:20;25.00;1.00